createdAt,value
2018-03-11T00:02:26.625Z,10.91
2018-03-11T00:04:58.133Z,10.78
2018-03-11T00:07:29.236Z,11.28
2018-03-11T00:09:59.969Z,11.02
2018-03-11T00:12:30.875Z,11.05
2018-03-11T00:15:01.854Z,11.13
2018-03-11T00:17:32.609Z,11.06
2018-03-11T00:20:03.543Z,11.05
2018-03-11T00:22:34.667Z,11.00
2018-03-11T00:25:05.681Z,10.85
2018-03-11T00:27:36.866Z,10.75
2018-03-11T00:30:07.888Z,10.74
2018-03-11T00:32:38.729Z,10.53
2018-03-11T00:35:09.846Z,10.52
2018-03-11T00:37:40.761Z,10.68
2018-03-11T00:40:11.791Z,10.75
2018-03-11T00:42:42.953Z,10.69
2018-03-11T00:45:13.956Z,10.68
2018-03-11T00:47:44.810Z,10.72
2018-03-11T00:50:16.004Z,10.67
2018-03-11T00:52:46.749Z,10.57
2018-03-11T00:55:17.614Z,10.49
2018-03-11T00:57:49.778Z,10.46
2018-03-11T01:00:21.326Z,10.58
2018-03-11T01:02:53.108Z,10.48
2018-03-11T01:05:23.886Z,10.52
2018-03-11T01:07:54.726Z,10.57
2018-03-11T01:10:25.868Z,10.72
2018-03-11T01:12:57.360Z,10.62
2018-03-11T01:15:28.174Z,10.67
2018-03-11T01:18:00.005Z,10.75
2018-03-11T01:20:31.397Z,10.69
2018-03-11T01:23:03.189Z,10.71
2018-03-11T01:25:34.499Z,10.69
2018-03-11T01:28:05.377Z,10.63
2018-03-11T01:30:37.130Z,10.76
2018-03-11T01:33:08.001Z,10.74
2018-03-11T01:35:39.236Z,10.84
2018-03-11T01:38:10.908Z,10.81
2018-03-11T01:40:42.309Z,10.78
2018-03-11T01:43:13.413Z,10.65
2018-03-11T01:45:44.251Z,10.55
2018-03-11T01:48:15.009Z,10.47
2018-03-11T01:50:46.916Z,10.37
2018-03-11T01:53:18.301Z,10.25
2018-03-11T01:55:50.017Z,10.54
2018-03-11T01:58:21.956Z,10.47
2018-03-11T02:00:53.303Z,10.64
2018-03-11T02:03:24.628Z,10.45
2018-03-11T02:05:56.397Z,10.36
2018-03-11T02:08:27.979Z,10.37
2018-03-11T02:10:59.516Z,10.39
2018-03-11T02:13:31.660Z,10.39
2018-03-11T02:16:03.160Z,10.13
2018-03-11T02:18:34.687Z,10.12
2018-03-11T02:21:06.883Z,10.18
2018-03-11T02:23:38.054Z,10.33
2018-03-11T02:26:09.345Z,10.08
2018-03-11T02:28:40.916Z,10.05
2018-03-11T02:31:12.072Z,10.00
2018-03-11T02:33:43.810Z,9.98
2018-03-11T02:36:15.456Z,10.06
2018-03-11T02:38:46.885Z,9.76
2018-03-11T02:41:18.001Z,9.59
2018-03-11T02:43:50.069Z,9.27
2018-03-11T02:46:21.540Z,9.03
2018-03-11T02:48:53.293Z,8.95
2018-03-11T02:51:24.655Z,8.93
2018-03-11T02:53:56.201Z,8.73
2018-03-11T02:56:27.864Z,8.59
2018-03-11T02:58:59.720Z,9.01
2018-03-11T03:01:31.370Z,8.64
2018-03-11T03:04:02.128Z,8.99
2018-03-11T03:06:33.018Z,8.61
2018-03-11T03:09:04.268Z,8.57
2018-03-11T03:11:35.100Z,9.28
2018-03-11T03:14:05.917Z,9.09
2018-03-11T03:16:37.589Z,9.62
2018-03-11T03:19:09.572Z,9.32
2018-03-11T03:21:41.056Z,9.45
2018-03-11T03:24:12.411Z,9.46
2018-03-11T03:26:44.189Z,8.94
2018-03-11T03:29:15.864Z,9.05
2018-03-11T03:31:47.377Z,9.29
2018-03-11T03:34:18.724Z,9.36
2018-03-11T03:36:50.149Z,8.99
2018-03-11T03:39:21.871Z,8.81
2018-03-11T03:41:53.344Z,9.17
2018-03-11T03:44:24.139Z,9.03
2018-03-11T03:46:55.772Z,8.91
2018-03-11T03:49:26.929Z,8.48
2018-03-11T03:52:09.242Z,8.45
2018-03-11T03:54:40.345Z,8.57
2018-03-11T03:57:11.452Z,8.56
2018-03-11T03:59:42.241Z,8.84
2018-03-11T04:02:13.140Z,8.94
2018-03-11T04:04:44.936Z,9.05
2018-03-11T04:07:16.977Z,8.97
2018-03-11T04:09:48.596Z,8.68
2018-03-11T04:12:19.717Z,7.95
2018-03-11T04:14:51.096Z,8.63
2018-03-11T04:17:21.944Z,8.65
2018-03-11T04:19:53.256Z,8.78
2018-03-11T04:22:24.096Z,8.62
2018-03-11T04:24:55.634Z,8.58
2018-03-11T04:27:26.765Z,8.57
2018-03-11T04:29:58.212Z,8.87
2018-03-11T04:32:29.831Z,8.50
2018-03-11T04:35:00.980Z,8.71
2018-03-11T04:37:32.560Z,8.27
2018-03-11T04:40:03.695Z,8.07
2018-03-11T04:42:34.717Z,8.32
2018-03-11T04:45:06.181Z,8.22
2018-03-11T04:47:46.425Z,7.86
2018-03-11T04:50:17.696Z,8.12
2018-03-11T04:56:10.424Z,8.43
2018-03-11T04:58:42.048Z,8.29
2018-03-11T05:01:14.161Z,8.02
2018-03-11T05:03:45.420Z,7.85
2018-03-11T05:06:17.301Z,7.57
2018-03-11T05:08:48.538Z,7.35
2018-03-11T05:11:20.004Z,7.45
2018-03-11T05:13:52.505Z,7.88
2018-03-11T05:16:23.666Z,7.97
2018-03-11T05:18:54.926Z,8.31
2018-03-11T05:21:26.508Z,8.10
2018-03-11T05:23:58.240Z,8.07
2018-03-11T05:26:29.873Z,8.02
2018-03-11T05:29:01.217Z,7.91
2018-03-11T05:31:34.089Z,7.46
2018-03-11T05:34:05.657Z,7.20
2018-03-11T05:36:36.976Z,7.10
2018-03-11T05:39:08.874Z,7.05
2018-03-11T05:41:40.628Z,6.66
2018-03-11T05:44:12.233Z,7.16
2018-03-11T05:46:44.082Z,7.29
2018-03-11T05:49:15.755Z,7.21
2018-03-11T05:51:47.096Z,6.69
2018-03-11T05:54:18.901Z,7.22
2018-03-11T05:56:50.752Z,6.53
2018-03-11T05:59:22.313Z,6.83
2018-03-11T06:01:54.383Z,7.32
2018-03-11T06:04:25.497Z,7.39
2018-03-11T06:06:57.029Z,7.44
2018-03-11T06:09:29.421Z,7.36
2018-03-11T06:12:00.989Z,7.37
2018-03-11T06:14:31.953Z,7.20
2018-03-11T06:17:03.729Z,7.50
2018-03-11T06:19:35.048Z,7.63
2018-03-11T06:22:06.505Z,7.61
2018-03-11T06:24:38.105Z,7.66
2018-03-11T06:27:10.028Z,7.56
2018-03-11T06:29:41.765Z,7.56
2018-03-11T06:32:13.271Z,7.62
2018-03-11T06:34:44.683Z,7.82
2018-03-11T06:37:16.321Z,8.08
2018-03-11T06:39:47.249Z,8.28
2018-03-11T06:42:18.361Z,8.19
2018-03-11T06:44:49.603Z,8.16
2018-03-11T06:47:21.353Z,8.39
2018-03-11T06:49:52.484Z,8.46
2018-03-11T06:52:23.694Z,8.64
2018-03-11T06:54:54.686Z,8.70
2018-03-11T06:57:25.729Z,9.03
2018-03-11T06:59:57.473Z,9.23
2018-03-11T07:02:28.490Z,9.17
2018-03-11T07:04:59.650Z,9.32
2018-03-11T07:07:30.860Z,9.32
2018-03-11T07:10:01.870Z,9.32
2018-03-11T07:12:32.940Z,9.50
2018-03-11T07:15:04.828Z,9.55
2018-03-11T07:17:36.162Z,9.78
2018-03-11T07:20:09.260Z,10.08
2018-03-11T07:22:40.183Z,10.42
2018-03-11T07:25:12.044Z,10.35
2018-03-11T07:27:43.182Z,10.51
2018-03-11T07:30:14.066Z,10.77
2018-03-11T07:32:44.953Z,10.75
2018-03-11T07:35:16.257Z,11.05
2018-03-11T07:37:47.686Z,11.11
2018-03-11T07:40:19.029Z,11.21
2018-03-11T07:42:49.876Z,11.31
2018-03-11T07:45:21.167Z,11.54
2018-03-11T07:47:53.075Z,11.85
2018-03-11T07:50:24.206Z,12.04
2018-03-11T07:52:55.738Z,12.23
2018-03-11T07:55:27.021Z,12.35
2018-03-11T07:57:57.793Z,12.48
2018-03-11T08:00:28.906Z,12.70
2018-03-11T08:03:00.141Z,12.83
2018-03-11T08:05:31.568Z,13.05
2018-03-11T08:08:02.657Z,13.29
2018-03-11T08:10:33.484Z,13.11
2018-03-11T08:13:04.275Z,13.69
2018-03-11T08:15:36.465Z,13.88
2018-03-11T08:18:07.254Z,14.36
2018-03-11T08:20:38.157Z,14.55
2018-03-11T08:23:09.988Z,14.46
2018-03-11T08:25:40.818Z,14.87
2018-03-11T08:28:12.134Z,14.43
2018-03-11T08:30:43.200Z,14.62
2018-03-11T08:33:14.024Z,14.48
2018-03-11T08:35:44.874Z,14.35
2018-03-11T08:38:16.265Z,14.55
2018-03-11T08:40:47.198Z,14.83
2018-03-11T08:43:17.961Z,14.70
2018-03-11T08:45:49.145Z,14.98
2018-03-11T08:48:20.026Z,14.67
2018-03-11T08:50:50.998Z,15.03
2018-03-11T08:53:23.013Z,14.70
2018-03-11T08:55:53.873Z,13.77
2018-03-11T08:58:24.749Z,14.71
2018-03-11T09:00:55.525Z,14.82
2018-03-11T09:03:26.594Z,14.89
2018-03-11T09:05:57.429Z,15.22
2018-03-11T09:08:28.245Z,15.30
2018-03-11T09:10:59.974Z,15.08
2018-03-11T09:13:31.910Z,15.55
2018-03-11T09:16:03.468Z,15.66
2018-03-11T09:18:34.709Z,15.61
2018-03-11T09:21:05.513Z,15.87
2018-03-11T09:23:36.401Z,16.19
2018-03-11T09:26:07.969Z,16.10
2018-03-11T09:28:39.242Z,16.11
2018-03-11T09:31:10.365Z,15.62
2018-03-11T09:33:44.838Z,16.46
2018-03-11T09:36:15.675Z,16.72
2018-03-11T09:38:46.756Z,16.95
2018-03-11T09:41:17.584Z,16.81
2018-03-11T09:43:48.392Z,16.73
2018-03-11T09:46:19.553Z,16.31
2018-03-11T09:48:50.388Z,16.10
2018-03-11T09:51:21.491Z,16.05
2018-03-11T09:53:52.227Z,16.13
2018-03-11T09:56:23.053Z,16.28
2018-03-11T09:58:54.136Z,16.62
2018-03-11T10:01:24.973Z,16.73
2018-03-11T10:03:55.801Z,16.57
2018-03-11T10:06:26.896Z,16.72
2018-03-11T10:08:58.672Z,16.91
2018-03-11T10:11:29.504Z,17.18
2018-03-11T10:14:00.521Z,17.49
2018-03-11T10:16:31.317Z,17.18
2018-03-11T10:19:02.201Z,17.45
2018-03-11T10:21:33.477Z,17.21
2018-03-11T10:24:04.393Z,17.33
2018-03-11T10:26:35.492Z,17.36
2018-03-11T10:29:06.333Z,17.54
2018-03-11T10:31:37.137Z,17.77
2018-03-11T10:34:10.115Z,18.02
2018-03-11T10:36:40.970Z,17.90
2018-03-11T10:39:11.794Z,18.06
2018-03-11T10:41:42.921Z,18.20
2018-03-11T10:44:13.709Z,18.65
2018-03-11T10:46:44.551Z,18.58
2018-03-11T10:49:15.464Z,18.92
2018-03-11T10:51:46.253Z,19.33
2018-03-11T10:54:17.319Z,18.60
2018-03-11T10:56:48.123Z,19.56
2018-03-11T10:59:19.821Z,19.72
2018-03-11T11:01:54.756Z,19.98
2018-03-11T11:04:29.405Z,19.80
2018-03-11T11:07:00.525Z,20.06
2018-03-11T11:09:31.417Z,20.42
2018-03-11T11:12:02.298Z,20.10
2018-03-11T11:14:37.547Z,20.33
2018-03-11T11:17:08.340Z,19.89
2018-03-11T11:19:39.666Z,19.75
2018-03-11T11:22:10.465Z,20.36
2018-03-11T11:24:41.734Z,20.09
2018-03-11T11:27:12.937Z,19.90
2018-03-11T11:29:43.759Z,20.04
2018-03-11T11:32:14.654Z,19.53
2018-03-11T11:34:45.681Z,19.57
2018-03-11T11:37:16.595Z,19.38
2018-03-11T11:39:47.785Z,19.33
2018-03-11T11:42:18.864Z,18.85
2018-03-11T11:44:49.652Z,18.41
2018-03-11T11:47:21.541Z,18.52
2018-03-11T11:49:52.561Z,18.50
2018-03-11T11:52:23.353Z,18.72
2018-03-11T11:54:54.106Z,18.52
2018-03-11T11:57:25.193Z,18.80
2018-03-11T11:59:56.077Z,18.79
2018-03-11T12:02:26.881Z,18.44
2018-03-11T12:04:57.985Z,18.61
2018-03-11T12:07:32.697Z,18.35
2018-03-11T12:10:04.210Z,18.42
2018-03-11T12:12:35.050Z,18.35
2018-03-11T12:15:06.200Z,18.55
2018-03-11T12:17:37.084Z,18.37
2018-03-11T12:20:07.968Z,18.55
2018-03-11T12:22:40.526Z,18.46
2018-03-11T12:25:11.305Z,18.19
2018-03-11T12:27:42.153Z,18.40
2018-03-11T12:30:13.476Z,18.45
2018-03-11T12:32:44.536Z,18.54
2018-03-11T12:35:15.458Z,18.70
2018-03-11T12:37:46.521Z,18.90
2018-03-11T12:40:17.313Z,18.86
2018-03-11T12:42:48.485Z,19.38
2018-03-11T12:45:19.307Z,19.46
2018-03-11T12:47:50.100Z,19.85
2018-03-11T12:50:21.112Z,19.78
2018-03-11T12:52:52.008Z,19.79
2018-03-11T12:55:22.816Z,19.80
2018-03-11T12:57:53.937Z,19.53
2018-03-11T13:00:24.762Z,19.63
2018-03-11T13:02:56.382Z,19.68
2018-03-11T13:05:27.387Z,19.37
2018-03-11T13:07:58.754Z,19.73
2018-03-11T13:10:30.549Z,19.38
2018-03-11T13:13:01.390Z,19.50
2018-03-11T13:15:32.732Z,19.59
2018-03-11T13:18:03.588Z,19.57
2018-03-11T13:21:08.767Z,19.59
2018-03-11T13:23:40.013Z,19.80
2018-03-11T13:26:10.841Z,19.30
2018-03-11T13:28:48.448Z,19.32
2018-03-11T13:31:19.347Z,19.30
2018-03-11T13:34:00.109Z,19.41
2018-03-11T13:36:31.465Z,19.20
2018-03-11T13:39:13.457Z,19.30
2018-03-11T13:41:46.379Z,19.31
2018-03-11T13:44:19.987Z,19.50
2018-03-11T13:47:03.696Z,19.22
2018-03-11T13:49:34.650Z,19.22
2018-03-11T13:52:15.589Z,19.34
2018-03-11T13:54:46.729Z,19.62
2018-03-11T13:57:40.696Z,19.42
2018-03-11T14:00:11.860Z,19.31
2018-03-11T14:02:42.672Z,19.16
2018-03-11T14:05:13.550Z,19.15
2018-03-11T14:07:44.637Z,18.88
2018-03-11T14:10:15.468Z,18.84
2018-03-11T14:12:46.541Z,19.11
2018-03-11T14:15:17.493Z,19.32
2018-03-11T14:17:48.336Z,19.26
2018-03-11T14:20:20.437Z,19.69
2018-03-11T14:22:51.257Z,19.71
2018-03-11T14:25:22.101Z,19.83
2018-03-11T14:27:53.349Z,19.83
2018-03-11T14:30:24.429Z,19.98
2018-03-11T14:32:55.309Z,20.13
2018-03-11T14:35:27.323Z,20.30
2018-03-11T14:37:58.125Z,20.14
2018-03-11T14:40:29.321Z,19.86
2018-03-11T14:43:00.147Z,19.84
2018-03-11T14:45:31.251Z,19.56
2018-03-11T14:48:02.431Z,19.50
2018-03-11T14:50:35.334Z,19.58
2018-03-11T14:53:06.276Z,19.38
2018-03-11T14:55:37.533Z,19.13
2018-03-11T14:58:08.382Z,19.19
2018-03-11T15:00:39.145Z,19.09
2018-03-11T15:03:10.201Z,18.94
2018-03-11T15:05:41.008Z,18.82
2018-03-11T15:08:12.085Z,18.87
2018-03-11T15:10:44.201Z,19.03
2018-03-11T15:13:15.116Z,19.04
2018-03-11T15:15:46.192Z,18.99
2018-03-11T15:18:17.037Z,18.92
2018-03-11T15:20:48.069Z,18.82
2018-03-11T15:23:19.269Z,18.82
2018-03-11T15:25:50.120Z,18.71
2018-03-11T15:28:20.994Z,18.61
2018-03-11T15:30:52.265Z,18.74
2018-03-11T15:33:23.161Z,18.93
2018-03-11T15:38:16.090Z,18.52
2018-03-11T15:40:46.954Z,18.81
2018-03-11T15:43:17.872Z,18.78
2018-03-11T15:45:49.075Z,18.72
2018-03-11T15:48:19.981Z,18.47
2018-03-11T15:50:50.822Z,18.36
2018-03-11T15:53:21.853Z,18.33
2018-03-11T15:55:52.728Z,18.29
2018-03-11T15:58:23.597Z,18.29
2018-03-11T16:00:54.964Z,18.27
2018-03-11T16:03:25.775Z,18.19
2018-03-11T16:05:57.609Z,18.24
2018-03-11T16:08:28.473Z,18.14
2018-03-11T16:10:59.640Z,18.31
2018-03-11T16:13:30.385Z,18.22
2018-03-11T16:16:01.145Z,17.93
2018-03-11T16:18:32.319Z,18.09
2018-03-11T16:21:03.089Z,17.93
2018-03-11T16:23:33.877Z,17.62
2018-03-11T16:26:05.106Z,17.66
2018-03-11T16:28:35.915Z,17.60
2018-03-11T16:31:06.809Z,17.62
2018-03-11T16:33:38.005Z,17.62
2018-03-11T16:36:09.008Z,17.64
2018-03-11T16:38:40.324Z,17.62
2018-03-11T16:41:11.169Z,17.76
2018-03-11T16:43:42.009Z,17.64
2018-03-11T16:46:13.194Z,17.55
2018-03-11T16:48:44.055Z,17.45
2018-03-11T16:51:14.885Z,17.46
2018-03-11T16:53:45.963Z,17.03
2018-03-11T16:56:16.824Z,17.06
2018-03-11T16:58:47.590Z,16.99
2018-03-11T17:01:19.652Z,16.91
2018-03-11T17:03:50.505Z,17.09
2018-03-11T17:06:21.388Z,17.04
2018-03-11T17:08:52.599Z,16.85
2018-03-11T17:11:24.063Z,16.26
2018-03-11T17:13:56.091Z,16.53
2018-03-11T17:16:29.125Z,16.02
2018-03-11T17:19:00.963Z,15.81
2018-03-11T17:21:32.152Z,15.84
2018-03-11T17:24:02.993Z,15.69
2018-03-11T17:26:33.847Z,16.16
2018-03-11T17:29:05.435Z,16.37
2018-03-11T17:31:36.390Z,16.62
2018-03-11T17:34:07.537Z,16.54
2018-03-11T17:36:39.337Z,16.66
2018-03-11T17:39:10.250Z,16.48
2018-03-11T17:41:41.434Z,16.46
2018-03-11T17:44:19.029Z,16.34
2018-03-11T17:46:50.241Z,16.52
2018-03-11T17:49:21.070Z,16.01
2018-03-11T17:51:51.841Z,16.37
2018-03-11T17:54:22.945Z,16.22
2018-03-11T17:56:53.690Z,16.20
2018-03-11T17:59:24.484Z,16.08
2018-03-11T18:01:55.658Z,16.02
2018-03-11T18:04:26.512Z,16.22
2018-03-11T18:06:57.316Z,16.08
2018-03-11T18:09:28.461Z,16.31
2018-03-11T18:11:59.313Z,15.96
2018-03-11T18:14:30.593Z,15.90
2018-03-11T18:17:09.509Z,15.82
2018-03-11T18:19:40.742Z,15.70
2018-03-11T18:22:11.605Z,15.25
2018-03-11T18:24:42.467Z,15.49
2018-03-11T18:27:14.800Z,14.97
2018-03-11T18:29:45.561Z,15.02
2018-03-11T18:32:16.382Z,15.37
2018-03-11T18:34:47.405Z,15.23
2018-03-11T18:37:19.413Z,14.80
2018-03-11T18:39:50.169Z,14.98
2018-03-11T18:42:21.289Z,14.71
2018-03-11T18:44:52.085Z,14.65
2018-03-11T18:47:23.193Z,15.09
2018-03-11T18:49:54.130Z,14.69
2018-03-11T18:52:25.049Z,15.00
2018-03-11T18:54:56.221Z,14.70
2018-03-11T18:57:27.574Z,14.81
2018-03-11T18:59:58.801Z,14.84
2018-03-11T19:02:29.937Z,14.71
2018-03-11T19:05:00.794Z,14.72
2018-03-11T19:07:32.573Z,14.65
2018-03-11T19:10:03.785Z,14.49
2018-03-11T19:12:36.677Z,14.75
2018-03-11T19:15:08.372Z,14.92
2018-03-11T19:17:39.250Z,14.92
2018-03-11T19:20:10.102Z,15.01
2018-03-11T19:22:41.169Z,14.79
2018-03-11T19:25:11.975Z,14.74
2018-03-11T19:27:42.761Z,14.58
2018-03-11T19:30:13.959Z,14.51
2018-03-11T19:32:45.137Z,14.50
2018-03-11T19:35:16.014Z,14.01
2018-03-11T19:37:48.017Z,13.97
2018-03-11T19:40:18.787Z,13.93
2018-03-11T19:42:52.879Z,13.78
2018-03-11T19:45:23.718Z,13.73
2018-03-11T19:47:55.367Z,13.80
2018-03-11T19:50:27.117Z,14.05
2018-03-11T19:52:57.927Z,13.61
2018-03-11T19:55:30.841Z,13.96
2018-03-11T19:58:01.919Z,13.37
2018-03-11T20:00:33.241Z,13.18
2018-03-11T20:03:04.155Z,13.41
2018-03-11T20:05:35.232Z,13.77
2018-03-11T20:08:06.061Z,13.84
2018-03-11T20:10:36.852Z,13.75
2018-03-11T20:13:09.021Z,13.70
2018-03-11T20:15:39.820Z,13.62
2018-03-11T20:18:11.201Z,13.56
2018-03-11T20:20:43.202Z,13.37
2018-03-11T20:23:14.605Z,13.33
2018-03-11T20:25:45.405Z,13.33
2018-03-11T20:28:16.576Z,13.50
2018-03-11T20:30:47.733Z,13.44
2018-03-11T20:33:19.221Z,13.60
2018-03-11T20:35:50.851Z,13.37
2018-03-11T20:38:22.081Z,13.40
2018-03-11T20:40:53.925Z,13.51
2018-03-11T20:43:24.910Z,13.50
2018-03-11T20:45:56.671Z,13.36
2018-03-11T20:48:28.357Z,13.67
2018-03-11T20:50:59.401Z,13.62
2018-03-11T20:53:30.765Z,13.77
2018-03-11T20:56:01.545Z,13.58
2018-03-11T20:58:32.848Z,13.48
2018-03-11T21:01:03.731Z,13.55
2018-03-11T21:03:34.580Z,13.84
2018-03-11T21:06:05.609Z,13.78
2018-03-11T21:08:36.610Z,13.62
2018-03-11T21:11:07.677Z,13.71
2018-03-11T21:13:39.232Z,13.60
2018-03-11T21:16:10.099Z,13.43
2018-03-11T21:18:41.641Z,13.30
2018-03-11T21:21:13.032Z,13.14
2018-03-11T21:23:44.372Z,13.18
2018-03-11T21:26:16.705Z,13.20
2018-03-11T21:28:47.459Z,13.36
2018-03-11T21:31:18.834Z,13.31
2018-03-11T21:33:49.620Z,13.12
2018-03-11T21:36:21.000Z,13.20
2018-03-11T21:38:51.832Z,13.00
2018-03-11T21:41:22.697Z,12.90
2018-03-11T21:43:54.069Z,12.91
2018-03-11T21:46:25.438Z,12.98
2018-03-11T21:48:59.357Z,12.80
2018-03-11T21:51:30.212Z,12.91
2018-03-11T21:54:01.012Z,12.74
2018-03-11T21:56:32.073Z,12.75
2018-03-11T21:59:04.065Z,12.77
2018-03-11T22:01:34.858Z,12.87
2018-03-11T22:04:06.236Z,12.98
2018-03-11T22:06:49.250Z,12.84
2018-03-11T22:09:20.964Z,12.78
2018-03-11T22:12:09.929Z,13.00
2018-03-11T22:14:41.169Z,12.71
2018-03-11T22:17:42.305Z,12.62
2018-03-11T22:20:16.041Z,12.83
2018-03-11T22:22:46.929Z,12.66
2018-03-11T22:25:19.914Z,12.63
2018-03-11T22:27:50.759Z,12.55
2018-03-11T22:30:22.025Z,12.55
2018-03-11T22:33:08.645Z,12.56
2018-03-11T22:35:40.476Z,12.73
2018-03-11T22:38:11.787Z,12.77
2018-03-11T22:40:43.205Z,12.74
2018-03-11T22:43:14.378Z,12.69
2018-03-11T22:45:45.332Z,12.62
2018-03-11T22:48:23.113Z,12.53
2018-03-11T22:50:54.921Z,12.49
2018-03-11T22:53:26.408Z,12.60
2018-03-11T22:56:05.060Z,12.55
2018-03-11T22:58:38.513Z,12.41
2018-03-11T23:01:09.821Z,11.57
2018-03-11T23:03:40.688Z,11.93
2018-03-11T23:06:11.529Z,11.23
2018-03-11T23:08:42.729Z,11.09
2018-03-11T23:11:13.630Z,11.55
2018-03-11T23:13:44.425Z,11.38
2018-03-11T23:16:17.473Z,11.84
2018-03-11T23:18:58.430Z,12.02
2018-03-11T23:21:30.179Z,12.17
2018-03-11T23:24:01.026Z,12.14
2018-03-11T23:26:31.828Z,12.13
2018-03-11T23:29:02.962Z,12.19
2018-03-11T23:31:33.754Z,12.17
2018-03-11T23:34:04.538Z,12.23
2018-03-11T23:36:35.976Z,12.52
2018-03-11T23:39:07.292Z,12.55
2018-03-11T23:41:38.757Z,12.36
2018-03-11T23:44:10.173Z,12.39
2018-03-11T23:46:41.517Z,12.48
2018-03-11T23:49:13.265Z,12.40
2018-03-11T23:51:44.796Z,12.21
2018-03-11T23:54:15.670Z,12.16
2018-03-11T23:56:47.061Z,12.33
2018-03-11T23:59:18.707Z,12.27
